createdAt,value
2022-08-30T00:01:03.703Z,94.97
2022-08-30T00:03:34.138Z,96.97
2022-08-30T00:06:01.101Z,95.22
2022-08-30T00:08:28.389Z,94.78
2022-08-30T00:10:55.267Z,95.18
2022-08-30T00:13:23.521Z,93.97
2022-08-30T00:15:50.695Z,97.30
2022-08-30T00:18:19.758Z,96.88
2022-08-30T00:20:48.207Z,95.10
2022-08-30T00:23:15.081Z,93.43
2022-08-30T00:25:42.574Z,94.85
2022-08-30T00:28:09.831Z,99.38
2022-08-30T00:30:37.503Z,93.22
2022-08-30T00:33:04.813Z,98.72
2022-08-30T00:35:31.818Z,93.68
2022-08-30T00:37:58.885Z,94.18
2022-08-30T00:40:27.989Z,93.80
2022-08-30T00:42:59.677Z,93.10
2022-08-30T00:45:33.643Z,97.22
2022-08-30T00:48:00.899Z,96.75
2022-08-30T00:50:38.664Z,95.22
2022-08-30T00:53:09.222Z,94.25
2022-08-30T00:55:38.993Z,94.30
2022-08-30T00:58:17.086Z,102.75
2022-08-30T01:00:44.630Z,97.95
2022-08-30T01:03:11.480Z,96.00
2022-08-30T01:05:39.341Z,93.07
2022-08-30T01:08:06.380Z,98.80
2022-08-30T01:10:35.766Z,92.63
2022-08-30T01:13:03.305Z,96.60
2022-08-30T01:15:32.614Z,94.25
2022-08-30T01:18:00.213Z,99.05
2022-08-30T01:20:39.623Z,96.95
2022-08-30T01:23:13.644Z,97.93
2022-08-30T01:25:42.838Z,94.38
2022-08-30T01:28:21.872Z,95.28
2022-08-30T01:30:48.771Z,102.28
2022-08-30T01:33:16.291Z,96.38
2022-08-30T01:35:49.458Z,94.78
2022-08-30T01:38:18.061Z,95.25
2022-08-30T01:40:45.116Z,98.80
2022-08-30T01:43:14.322Z,98.97
2022-08-30T01:45:41.382Z,95.97
2022-08-30T01:48:09.118Z,96.00
2022-08-30T01:50:35.865Z,97.60
2022-08-30T01:53:07.135Z,95.05
2022-08-30T01:55:34.014Z,93.38
2022-08-30T01:58:01.140Z,92.88
2022-08-30T02:00:27.871Z,94.00
2022-08-30T02:02:54.965Z,94.18
2022-08-30T02:05:21.624Z,96.22
2022-08-30T02:07:48.299Z,94.40
2022-08-30T02:10:15.119Z,94.40
2022-08-30T02:12:42.115Z,96.10
2022-08-30T02:15:09.977Z,93.97
2022-08-30T02:17:36.974Z,94.25
2022-08-30T02:20:05.388Z,98.13
2022-08-30T02:22:32.115Z,95.93
2022-08-30T02:24:58.906Z,96.70
2022-08-30T02:27:26.646Z,93.93
2022-08-30T02:29:53.570Z,96.50
2022-08-30T02:32:20.244Z,94.78
2022-08-30T02:34:47.300Z,104.05
2022-08-30T02:37:15.435Z,98.28
2022-08-30T02:39:42.464Z,98.40
2022-08-30T02:42:09.396Z,97.78
2022-08-30T02:44:36.261Z,94.75
2022-08-30T02:47:03.423Z,98.63
2022-08-30T02:49:33.584Z,95.78
2022-08-30T02:52:01.941Z,96.30
2022-08-30T02:54:28.729Z,98.38
2022-08-30T02:56:56.149Z,98.32
2022-08-30T02:59:22.830Z,100.10
2022-08-30T03:01:49.712Z,100.38
2022-08-30T03:04:16.479Z,97.15
2022-08-30T03:06:43.639Z,94.65
2022-08-30T03:09:10.348Z,95.45
2022-08-30T03:11:37.550Z,94.43
2022-08-30T03:14:04.442Z,97.57
2022-08-30T03:16:31.144Z,97.50
2022-08-30T03:18:57.881Z,95.70
2022-08-30T03:21:24.722Z,95.68
2022-08-30T03:23:51.418Z,96.68
2022-08-30T03:26:18.129Z,95.07
2022-08-30T03:28:44.850Z,94.43
2022-08-30T03:31:12.119Z,95.38
2022-08-30T03:33:40.527Z,96.55
2022-08-30T03:36:08.859Z,100.30
2022-08-30T03:38:36.126Z,98.30
2022-08-30T03:41:02.844Z,95.88
2022-08-30T03:43:30.724Z,98.75
2022-08-30T03:45:58.210Z,101.13
2022-08-30T03:48:26.107Z,94.88
2022-08-30T03:50:53.232Z,95.40
2022-08-30T03:53:20.302Z,94.15
2022-08-30T03:55:46.977Z,99.25
2022-08-30T03:58:19.197Z,96.10
2022-08-30T04:00:46.449Z,95.25
2022-08-30T04:03:13.412Z,96.18
2022-08-30T04:05:40.499Z,96.57
2022-08-30T04:08:07.393Z,96.53
2022-08-30T04:10:35.247Z,94.72
2022-08-30T04:13:01.951Z,99.70
2022-08-30T04:15:28.700Z,95.47
2022-08-30T04:17:55.415Z,95.13
2022-08-30T04:20:22.199Z,96.90
2022-08-30T04:22:50.259Z,96.05
2022-08-30T04:25:17.675Z,95.45
2022-08-30T04:27:45.616Z,96.07
2022-08-30T04:30:13.631Z,94.80
2022-08-30T04:32:40.326Z,96.43
2022-08-30T04:35:07.534Z,93.97
2022-08-30T04:37:34.288Z,95.90
2022-08-30T04:40:01.067Z,94.80
2022-08-30T04:42:32.161Z,95.97
2022-08-30T04:45:01.974Z,94.38
2022-08-30T04:47:28.846Z,96.63
2022-08-30T04:49:55.566Z,94.43
2022-08-30T04:52:22.931Z,96.40
2022-08-30T04:54:57.369Z,97.25
2022-08-30T04:57:25.118Z,95.53
2022-08-30T04:59:51.820Z,96.65
2022-08-30T05:02:18.623Z,96.35
2022-08-30T05:05:03.916Z,94.88
2022-08-30T05:07:31.936Z,97.40
2022-08-30T05:09:59.533Z,95.28
2022-08-30T05:12:26.269Z,94.72
2022-08-30T05:14:53.183Z,98.15
2022-08-30T05:17:19.873Z,96.43
2022-08-30T05:19:46.575Z,95.18
2022-08-30T05:22:13.294Z,95.90
2022-08-30T05:24:40.065Z,95.90
2022-08-30T05:27:06.926Z,94.18
2022-08-30T05:29:34.094Z,95.25
2022-08-30T05:32:00.869Z,94.45
2022-08-30T05:34:30.310Z,95.20
2022-08-30T05:36:57.082Z,94.45
2022-08-30T05:39:23.774Z,98.10
2022-08-30T05:41:50.539Z,103.40
2022-08-30T05:44:17.281Z,99.70
2022-08-30T05:46:46.239Z,93.75
2022-08-30T05:49:13.255Z,93.47
2022-08-30T05:51:43.096Z,96.75
2022-08-30T05:54:12.215Z,93.05
2022-08-30T05:56:40.255Z,96.47
2022-08-30T05:59:08.774Z,95.97
2022-08-30T06:01:41.868Z,96.53
2022-08-30T06:04:10.660Z,92.63
2022-08-30T06:06:40.363Z,94.53
2022-08-30T06:09:09.341Z,95.45
2022-08-30T06:11:36.924Z,99.57
2022-08-30T06:14:04.487Z,94.80
2022-08-30T06:16:31.422Z,92.53
2022-08-30T06:19:00.024Z,95.30
2022-08-30T06:21:29.923Z,97.60
2022-08-30T06:23:57.663Z,94.93
2022-08-30T06:26:25.581Z,93.65
2022-08-30T06:28:52.588Z,94.68
2022-08-30T06:31:21.190Z,96.15
2022-08-30T06:33:48.164Z,94.13
2022-08-30T06:36:21.561Z,104.43
2022-08-30T06:38:52.144Z,92.65
2022-08-30T06:41:22.282Z,93.25
2022-08-30T06:43:49.418Z,92.13
2022-08-30T06:46:20.197Z,93.70
2022-08-30T06:48:48.400Z,91.50
2022-08-30T06:51:19.585Z,91.55
2022-08-30T06:53:46.295Z,94.45
2022-08-30T06:56:16.429Z,92.30
2022-08-30T06:58:44.402Z,92.05
2022-08-30T07:01:16.515Z,93.72
2022-08-30T07:03:43.505Z,89.68
2022-08-30T07:06:10.692Z,87.73
2022-08-30T07:08:38.721Z,88.23
2022-08-30T07:11:07.468Z,87.00
2022-08-30T07:13:35.613Z,85.80
2022-08-30T07:16:08.556Z,85.20
2022-08-30T07:18:50.489Z,84.70
2022-08-30T07:21:20.511Z,84.30
2022-08-30T07:23:53.258Z,81.00
2022-08-30T07:26:24.208Z,87.33
2022-08-30T07:28:55.923Z,83.00
2022-08-30T07:31:24.090Z,82.27
2022-08-30T07:33:51.124Z,82.60
2022-08-30T07:36:18.480Z,86.13
2022-08-30T07:38:46.540Z,81.70
2022-08-30T07:41:23.148Z,82.57
2022-08-30T07:43:50.158Z,82.77
2022-08-30T07:46:17.915Z,81.80
2022-08-30T07:48:44.996Z,79.87
2022-08-30T07:51:15.594Z,79.57
2022-08-30T07:53:42.625Z,80.00
2022-08-30T07:56:09.458Z,81.30
2022-08-30T07:58:37.893Z,81.40
2022-08-30T08:01:07.480Z,80.97
2022-08-30T08:03:35.238Z,83.83
2022-08-30T08:06:04.527Z,83.00
2022-08-30T08:08:32.521Z,81.13
2022-08-30T08:11:05.367Z,78.87
2022-08-30T08:13:32.780Z,79.60
2022-08-30T08:16:03.575Z,81.20
2022-08-30T08:18:31.810Z,82.83
2022-08-30T08:21:00.352Z,81.30
2022-08-30T08:23:27.705Z,81.67
2022-08-30T08:25:54.576Z,81.83
2022-08-30T08:28:21.526Z,79.23
2022-08-30T08:30:50.091Z,80.20
2022-08-30T08:33:18.188Z,80.37
2022-08-30T08:35:45.585Z,79.37
2022-08-30T08:38:12.396Z,82.00
2022-08-30T08:40:50.280Z,80.40
2022-08-30T08:43:22.098Z,82.90
2022-08-30T08:45:51.835Z,80.63
2022-08-30T08:48:59.610Z,83.00
2022-08-30T08:51:51.300Z,82.10
2022-08-30T08:54:24.585Z,83.03
2022-08-30T08:56:51.599Z,82.57
2022-08-30T08:59:18.491Z,82.50
2022-08-30T09:01:46.597Z,81.80
2022-08-30T09:04:17.590Z,82.27
2022-08-30T09:07:04.907Z,86.07
2022-08-30T09:09:37.515Z,87.90
2022-08-30T09:12:05.663Z,82.13
2022-08-30T09:14:46.076Z,82.00
2022-08-30T09:17:16.673Z,81.37
2022-08-30T09:19:58.866Z,85.13
2022-08-30T09:22:35.274Z,84.03
2022-08-30T09:25:01.971Z,84.37
2022-08-30T09:27:38.925Z,81.40
2022-08-30T09:30:17.084Z,81.80
2022-08-30T09:32:55.120Z,88.57
2022-08-30T09:35:34.610Z,80.77
2022-08-30T09:38:05.786Z,85.57
2022-08-30T09:40:39.817Z,83.53
2022-08-30T09:43:10.399Z,80.90
2022-08-30T09:45:41.877Z,80.43
2022-08-30T09:48:34.037Z,79.93
2022-08-30T09:51:11.496Z,80.53
2022-08-30T09:54:16.655Z,80.90
2022-08-30T09:57:00.990Z,82.30
2022-08-30T09:59:39.898Z,83.20
2022-08-30T10:02:40.512Z,81.07
2022-08-30T10:05:20.335Z,82.37
2022-08-30T10:08:14.496Z,82.53
2022-08-30T10:10:45.629Z,79.37
2022-08-30T10:13:56.353Z,79.67
2022-08-30T10:16:41.958Z,78.97
2022-08-30T10:19:37.258Z,81.40
2022-08-30T10:22:22.458Z,78.97
2022-08-30T10:24:58.848Z,78.47
2022-08-30T10:27:32.048Z,79.63
2022-08-30T10:30:07.587Z,77.67
2022-08-30T10:32:55.279Z,79.47
2022-08-30T10:35:29.100Z,78.30
2022-08-30T10:38:06.300Z,77.20
2022-08-30T10:40:56.003Z,77.40
2022-08-30T10:43:41.333Z,79.37
2022-08-30T10:46:18.934Z,76.70
2022-08-30T10:48:48.292Z,78.57
2022-08-30T10:51:23.019Z,76.90
2022-08-30T10:54:10.103Z,76.70
2022-08-30T10:56:40.566Z,78.07
2022-08-30T10:59:07.628Z,77.37
2022-08-30T11:02:03.382Z,77.43
2022-08-30T11:04:57.476Z,76.17
2022-08-30T11:07:54.334Z,77.70
2022-08-30T11:11:00.084Z,75.70
2022-08-30T11:13:29.924Z,79.07
2022-08-30T11:15:59.531Z,75.70
2022-08-30T11:18:30.947Z,76.77
2022-08-30T11:21:32.336Z,76.33
2022-08-30T11:24:02.130Z,76.47
2022-08-30T11:26:48.278Z,77.27
2022-08-30T11:29:44.635Z,80.10
2022-08-30T11:32:15.779Z,76.60
2022-08-30T11:34:45.440Z,78.30
2022-08-30T11:37:42.428Z,75.17
2022-08-30T11:40:24.283Z,78.10
2022-08-30T11:42:54.681Z,75.20
2022-08-30T11:45:24.654Z,84.50
2022-08-30T11:48:05.581Z,75.90
2022-08-30T11:50:53.530Z,76.87
2022-08-30T11:53:34.045Z,74.60
2022-08-30T11:56:21.345Z,76.60
2022-08-30T11:58:59.954Z,79.97
2022-08-30T12:01:50.019Z,78.60
2022-08-30T12:04:19.727Z,75.30
2022-08-30T12:06:56.939Z,76.70
2022-08-30T12:09:23.575Z,76.20
2022-08-30T12:11:56.078Z,75.90
2022-08-30T12:14:54.868Z,75.10
2022-08-30T12:17:42.874Z,75.80
2022-08-30T12:20:24.269Z,76.10
2022-08-30T12:22:53.052Z,74.93
2022-08-30T12:25:26.255Z,77.10
2022-08-30T12:28:22.874Z,75.33
2022-08-30T12:30:50.615Z,76.87
2022-08-30T12:33:29.357Z,82.60
2022-08-30T12:35:59.277Z,75.43
2022-08-30T12:38:28.092Z,81.60
2022-08-30T12:40:58.386Z,75.97
2022-08-30T12:43:40.492Z,80.10
2022-08-30T12:46:12.355Z,76.63
2022-08-30T12:48:41.422Z,85.90
2022-08-30T12:51:10.850Z,76.73
2022-08-30T12:53:46.091Z,75.93
2022-08-30T12:56:17.466Z,77.80
2022-08-30T12:58:52.857Z,77.90
2022-08-30T13:01:31.203Z,76.10
2022-08-30T13:04:00.781Z,75.27
2022-08-30T13:06:58.324Z,80.00
2022-08-30T13:09:35.016Z,75.63
2022-08-30T13:12:10.703Z,76.57
2022-08-30T13:14:44.947Z,74.60
2022-08-30T13:17:11.642Z,75.27
2022-08-30T13:19:41.694Z,75.27
2022-08-30T13:22:24.319Z,75.40
2022-08-30T13:24:54.270Z,76.47
2022-08-30T13:27:21.594Z,74.97
2022-08-30T13:29:48.582Z,76.97
2022-08-30T13:32:16.071Z,78.13
2022-08-30T13:34:43.398Z,80.27
2022-08-30T13:40:15.085Z,75.30
2022-08-30T13:42:42.947Z,77.37
2022-08-30T13:47:59.950Z,76.90
2022-08-30T13:50:26.606Z,78.17
2022-08-30T13:52:53.283Z,80.37
2022-08-30T13:55:20.077Z,81.70
2022-08-30T13:57:55.099Z,83.10
2022-08-30T14:00:25.030Z,77.73
2022-08-30T14:02:57.744Z,78.37
2022-08-30T14:11:09.486Z,77.87
2022-08-30T14:13:36.927Z,79.57
2022-08-30T14:18:55.542Z,77.50
2022-08-30T14:21:24.809Z,79.93
2022-08-30T14:23:52.793Z,77.50
2022-08-30T14:26:32.383Z,77.73
2022-08-30T14:29:01.223Z,78.30
2022-08-30T14:31:29.927Z,76.87
2022-08-30T14:34:00.074Z,78.20
2022-08-30T14:36:26.756Z,77.50
2022-08-30T14:38:53.637Z,77.80
2022-08-30T14:41:20.315Z,78.60
2022-08-30T14:43:47.028Z,83.73
2022-08-30T14:46:13.759Z,79.10
2022-08-30T14:48:41.632Z,85.80
2022-08-30T14:51:18.282Z,76.77
2022-08-30T14:53:46.630Z,78.23
2022-08-30T14:56:16.510Z,76.87
2022-08-30T14:58:44.137Z,78.07
2022-08-30T15:01:12.583Z,82.70
2022-08-30T15:03:41.045Z,79.03
2022-08-30T15:06:09.370Z,77.63
2022-08-30T15:08:38.142Z,78.90
2022-08-30T15:11:12.100Z,79.70
2022-08-30T15:13:40.171Z,81.00
2022-08-30T15:16:16.285Z,78.93
2022-08-30T15:18:43.563Z,81.60
2022-08-30T15:21:10.758Z,79.70
2022-08-30T15:23:39.285Z,82.47
2022-08-30T15:26:07.019Z,81.50
2022-08-30T15:28:34.869Z,79.60
2022-08-30T15:31:05.178Z,88.40
2022-08-30T15:33:35.703Z,80.20
2022-08-30T15:36:04.837Z,81.10
2022-08-30T15:38:32.594Z,81.27
2022-08-30T15:41:04.025Z,82.40
2022-08-30T15:43:31.271Z,80.83
2022-08-30T15:46:15.297Z,81.50
2022-08-30T15:48:45.833Z,81.73
2022-08-30T15:51:13.254Z,80.50
2022-08-30T15:53:40.421Z,85.23
2022-08-30T15:56:07.126Z,82.07
2022-08-30T15:58:35.094Z,86.63
2022-08-30T16:01:02.327Z,81.47
2022-08-30T16:03:29.605Z,82.10
2022-08-30T16:05:56.881Z,84.97
2022-08-30T16:08:23.785Z,81.80
2022-08-30T16:10:52.559Z,85.23
2022-08-30T16:13:19.529Z,82.77
2022-08-30T16:15:46.241Z,84.40
2022-08-30T16:18:14.558Z,83.00
2022-08-30T16:20:42.023Z,81.77
2022-08-30T16:23:09.862Z,92.07
2022-08-30T16:25:40.792Z,82.47
2022-08-30T16:28:08.013Z,87.93
2022-08-30T16:30:36.612Z,83.10
2022-08-30T16:33:03.379Z,84.50
2022-08-30T16:35:30.030Z,89.73
2022-08-30T16:37:56.758Z,82.40
2022-08-30T16:40:23.527Z,83.77
2022-08-30T16:42:50.721Z,82.07
2022-08-30T16:45:17.981Z,82.77
2022-08-30T16:47:45.977Z,82.47
2022-08-30T16:50:13.069Z,89.40
2022-08-30T16:52:44.049Z,82.10
2022-08-30T16:55:11.072Z,83.43
2022-08-30T16:57:38.774Z,82.50
2022-08-30T17:00:13.070Z,82.47
2022-08-30T17:02:40.989Z,86.00
2022-08-30T17:05:12.302Z,82.13
2022-08-30T17:07:39.915Z,82.20
2022-08-30T17:10:07.122Z,84.40
2022-08-30T17:12:35.734Z,85.40
2022-08-30T17:15:05.456Z,87.50
2022-08-30T17:17:33.003Z,84.60
2022-08-30T17:19:59.766Z,88.03
2022-08-30T17:22:26.564Z,86.10
2022-08-30T17:24:53.407Z,84.93
2022-08-30T17:27:20.155Z,92.20
2022-08-30T17:29:48.155Z,86.93
2022-08-30T17:32:14.938Z,86.53
2022-08-30T17:34:41.747Z,88.13
2022-08-30T17:37:08.760Z,85.77
2022-08-30T17:39:36.376Z,86.37
2022-08-30T17:42:04.007Z,86.00
2022-08-30T17:44:34.464Z,86.03
2022-08-30T17:47:01.584Z,85.80
2022-08-30T17:49:30.197Z,90.87
2022-08-30T17:51:57.557Z,100.00
2022-08-30T17:54:26.797Z,90.27
2022-08-30T17:56:54.351Z,88.07
2022-08-30T17:59:24.862Z,88.97
2022-08-30T18:01:53.247Z,88.30
2022-08-30T18:04:20.043Z,86.00
2022-08-30T18:06:47.901Z,90.40
2022-08-30T18:09:14.620Z,98.53
2022-08-30T18:11:41.405Z,89.30
2022-08-30T18:14:10.909Z,91.50
2022-08-30T18:16:38.759Z,90.40
2022-08-30T18:19:14.852Z,90.80
2022-08-30T18:21:41.669Z,88.33
2022-08-30T18:24:08.947Z,86.20
2022-08-30T18:26:43.160Z,88.33
2022-08-30T18:29:10.572Z,86.27
2022-08-30T18:31:37.431Z,89.27
2022-08-30T18:34:04.219Z,88.00
2022-08-30T18:36:31.462Z,88.77
2022-08-30T18:38:58.368Z,87.37
2022-08-30T18:41:25.955Z,91.30
2022-08-30T18:44:10.947Z,86.87
2022-08-30T18:46:53.721Z,87.50
2022-08-30T18:49:23.633Z,88.57
2022-08-30T18:51:50.553Z,87.67
2022-08-30T18:54:17.493Z,86.80
2022-08-30T18:56:45.911Z,90.63
2022-08-30T18:59:12.989Z,87.70
2022-08-30T19:01:40.519Z,88.50
2022-08-30T19:04:07.786Z,88.10
2022-08-30T19:06:34.851Z,86.90
2022-08-30T19:09:09.170Z,87.20
2022-08-30T19:11:38.335Z,88.27
2022-08-30T19:14:07.686Z,87.60
2022-08-30T19:16:34.791Z,91.73
2022-08-30T19:19:02.961Z,88.53
2022-08-30T19:21:29.723Z,89.87
2022-08-30T19:23:56.401Z,94.37
2022-08-30T19:26:23.435Z,88.70
2022-08-30T19:28:54.211Z,90.07
2022-08-30T19:31:20.915Z,89.77
2022-08-30T19:33:47.606Z,90.70
2022-08-30T19:36:14.702Z,89.00
2022-08-30T19:38:44.280Z,88.63
2022-08-30T19:41:12.663Z,90.23
2022-08-30T19:43:40.017Z,88.50
2022-08-30T19:46:07.495Z,88.30
2022-08-30T19:48:39.048Z,88.50
2022-08-30T19:51:13.943Z,88.87
2022-08-30T19:53:41.895Z,88.30
2022-08-30T19:56:08.707Z,88.13
2022-08-30T19:58:35.455Z,89.60
2022-08-30T20:01:10.720Z,95.27
2022-08-30T20:03:39.863Z,89.07
2022-08-30T20:06:07.333Z,89.50
2022-08-30T20:08:34.189Z,89.20
2022-08-30T20:11:00.912Z,88.20
2022-08-30T20:13:28.333Z,89.57
2022-08-30T20:15:59.290Z,89.97
2022-08-30T20:18:26.430Z,88.57
2022-08-30T20:20:53.557Z,88.47
2022-08-30T20:23:23.520Z,88.40
2022-08-30T20:25:53.067Z,89.50
2022-08-30T20:28:20.988Z,89.67
2022-08-30T20:30:48.480Z,93.27
2022-08-30T20:33:16.529Z,91.93
2022-08-30T20:35:49.361Z,88.10
2022-08-30T20:38:21.347Z,89.53
2022-08-30T20:40:51.038Z,88.77
2022-08-30T20:43:19.971Z,89.40
2022-08-30T20:45:48.093Z,88.87
2022-08-30T20:48:15.501Z,88.27
2022-08-30T20:50:42.682Z,90.87
2022-08-30T20:53:10.070Z,90.37
2022-08-30T20:55:41.971Z,91.43
2022-08-30T20:58:08.661Z,89.30
2022-08-30T21:00:35.599Z,89.00
2022-08-30T21:03:03.735Z,88.47
2022-08-30T21:05:35.238Z,89.63
2022-08-30T21:08:02.027Z,92.90
2022-08-30T21:10:36.693Z,88.80
2022-08-30T21:13:03.378Z,90.10
2022-08-30T21:15:38.308Z,89.97
2022-08-30T21:18:05.879Z,89.90
2022-08-30T21:20:32.889Z,89.13
2022-08-30T21:22:59.622Z,88.70
2022-08-30T21:25:26.317Z,89.00
2022-08-30T21:27:53.869Z,94.43
2022-08-30T21:30:21.062Z,90.97
2022-08-30T21:32:47.742Z,89.50
2022-08-30T21:35:33.010Z,90.00
2022-08-30T21:37:59.736Z,88.90
2022-08-30T21:40:27.340Z,91.67
2022-08-30T21:42:54.165Z,89.80
2022-08-30T21:45:20.846Z,94.07
2022-08-30T21:47:47.569Z,89.97
2022-08-30T21:50:14.269Z,89.10
2022-08-30T21:52:40.941Z,90.37
2022-08-30T21:55:07.933Z,92.77
2022-08-30T21:57:34.844Z,91.03
2022-08-30T22:00:02.151Z,91.17
2022-08-30T22:02:29.073Z,88.70
2022-08-30T22:04:56.041Z,91.90
2022-08-30T22:07:22.723Z,90.77
2022-08-30T22:09:49.423Z,90.67
2022-08-30T22:12:16.330Z,91.77
2022-08-30T22:14:43.123Z,88.50
2022-08-30T22:17:09.921Z,88.30
2022-08-30T22:19:36.778Z,91.20
2022-08-30T22:22:03.871Z,91.40
2022-08-30T22:24:32.511Z,91.03
2022-08-30T22:27:00.416Z,89.10
2022-08-30T22:29:27.094Z,90.60
2022-08-30T22:31:54.265Z,92.43
2022-08-30T22:34:21.036Z,96.30
2022-08-30T22:36:47.792Z,97.80
2022-08-30T22:39:14.506Z,89.40
2022-08-30T22:41:42.907Z,91.07
2022-08-30T22:44:10.111Z,90.70
2022-08-30T22:46:37.809Z,98.00
2022-08-30T22:49:06.095Z,89.67
2022-08-30T22:51:33.656Z,90.07
2022-08-30T22:54:01.226Z,90.53
2022-08-30T22:56:28.943Z,90.23
2022-08-30T22:58:56.582Z,90.90
2022-08-30T23:01:29.407Z,91.23
2022-08-30T23:03:58.518Z,91.00
2022-08-30T23:06:25.856Z,92.20
2022-08-30T23:08:52.846Z,91.70
2022-08-30T23:11:20.229Z,90.20
2022-08-30T23:13:47.756Z,89.57
2022-08-30T23:16:15.634Z,89.60
2022-08-30T23:18:44.915Z,92.67
2022-08-30T23:21:19.169Z,91.47
2022-08-30T23:24:04.575Z,88.97
2022-08-30T23:26:50.158Z,91.90
2022-08-30T23:29:35.852Z,90.70
2022-08-30T23:32:21.803Z,89.40
2022-08-30T23:35:07.333Z,91.80
2022-08-30T23:37:53.426Z,94.03
2022-08-30T23:40:40.613Z,89.93
2022-08-30T23:43:26.840Z,90.33
2022-08-30T23:46:15.148Z,91.63
2022-08-30T23:49:05.273Z,94.00
2022-08-30T23:51:50.857Z,92.27
2022-08-30T23:54:36.358Z,110.03
2022-08-30T23:57:21.771Z,91.27
